createdAt,value
2019-04-27T00:00:09.573Z,34.60
2019-04-27T00:01:10.602Z,35.30
2019-04-27T00:02:09.518Z,36.20
2019-04-27T00:03:09.524Z,34.80
2019-04-27T00:04:11.759Z,34.30
2019-04-27T00:05:09.479Z,33.70
2019-04-27T00:06:09.472Z,34.00
2019-04-27T00:07:09.469Z,33.60
2019-04-27T00:08:09.471Z,34.40
2019-04-27T00:09:11.622Z,33.70
2019-04-27T00:10:09.463Z,33.10
2019-04-27T00:11:09.424Z,34.20
2019-04-27T00:12:09.409Z,34.80
2019-04-27T00:13:09.419Z,34.50
2019-04-27T00:14:10.328Z,33.10
2019-04-27T00:15:09.372Z,33.90
2019-04-27T00:16:10.061Z,34.90
2019-04-27T00:17:09.356Z,35.30
2019-04-27T00:18:13.421Z,34.30
2019-04-27T00:19:09.340Z,33.80
2019-04-27T00:20:09.318Z,33.40
2019-04-27T00:21:09.327Z,34.40
2019-04-27T00:22:09.312Z,34.70
2019-04-27T00:23:09.328Z,34.00
2019-04-27T00:24:09.273Z,34.90
2019-04-27T00:25:09.271Z,33.00
2019-04-27T00:26:09.262Z,32.70
2019-04-27T00:27:09.249Z,32.30
2019-04-27T00:28:09.249Z,32.80
2019-04-27T00:29:09.373Z,31.20
2019-04-27T00:30:09.221Z,32.10
2019-04-27T00:31:09.206Z,30.50
2019-04-27T00:32:09.190Z,28.80
2019-04-27T00:33:09.193Z,30.10
2019-04-27T00:34:09.175Z,28.50
2019-04-27T00:35:09.158Z,30.40
2019-04-27T00:36:09.151Z,29.40
2019-04-27T00:37:09.140Z,29.50
2019-04-27T00:38:09.146Z,29.30
2019-04-27T00:39:09.131Z,29.00
2019-04-27T00:40:09.103Z,29.00
2019-04-27T00:41:09.089Z,29.60
2019-04-27T00:42:09.082Z,28.80
2019-04-27T00:43:09.079Z,28.90
2019-04-27T00:44:09.078Z,27.60
2019-04-27T00:45:09.053Z,28.80
2019-04-27T00:46:09.044Z,29.80
2019-04-27T00:47:09.035Z,28.30
2019-04-27T00:48:09.013Z,27.30
2019-04-27T00:49:09.025Z,28.20
2019-04-27T00:50:08.987Z,29.10
2019-04-27T00:51:08.971Z,27.30
2019-04-27T00:52:09.009Z,28.20
2019-04-27T00:53:08.951Z,27.80
2019-04-27T00:54:08.961Z,28.70
2019-04-27T00:55:08.940Z,27.00
2019-04-27T00:56:08.921Z,27.90
2019-04-27T00:57:08.915Z,28.00
2019-04-27T00:58:08.902Z,26.00
2019-04-27T00:59:08.908Z,26.50
2019-04-27T01:00:08.885Z,26.20
2019-04-27T01:01:08.873Z,24.40
2019-04-27T01:02:08.850Z,24.20
2019-04-27T01:04:18.052Z,23.60
2019-04-27T01:05:19.026Z,24.60
2019-04-27T01:06:19.017Z,24.00
2019-04-27T01:07:19.003Z,24.20
2019-04-27T01:08:19.008Z,25.50
2019-04-27T01:09:19.001Z,25.00
2019-04-27T01:10:18.992Z,25.80
2019-04-27T01:11:18.972Z,25.80
2019-04-27T01:12:18.955Z,25.40
2019-04-27T01:13:18.948Z,25.70
2019-04-27T01:14:18.954Z,26.80
2019-04-27T01:15:18.927Z,24.80
2019-04-27T01:16:22.016Z,26.80
2019-04-27T01:17:18.996Z,26.60
2019-04-27T01:18:19.480Z,26.40
2019-04-27T01:19:19.105Z,27.10
2019-04-27T01:20:18.857Z,26.00
2019-04-27T01:21:19.414Z,25.60
2019-04-27T01:22:18.949Z,26.00
2019-04-27T01:23:19.315Z,25.20
2019-04-27T01:24:19.056Z,26.20
2019-04-27T01:25:19.012Z,25.70
2019-04-27T01:26:18.802Z,25.20
2019-04-27T01:27:19.026Z,27.20
2019-04-27T01:28:20.672Z,26.20
2019-04-27T01:29:19.284Z,25.80
2019-04-27T01:30:18.922Z,25.40
2019-04-27T01:31:19.292Z,25.00
2019-04-27T01:32:20.729Z,24.60
2019-04-27T01:33:19.819Z,25.10
2019-04-27T01:34:19.249Z,24.80
2019-04-27T01:35:18.798Z,25.20
2019-04-27T01:36:19.088Z,24.40
2019-04-27T01:37:19.581Z,24.80
2019-04-27T01:38:19.212Z,24.10
2019-04-27T01:39:18.982Z,24.10
2019-04-27T01:40:19.358Z,24.60
2019-04-27T01:41:19.128Z,23.10
2019-04-27T01:42:19.282Z,23.60
2019-04-27T01:43:18.751Z,24.80
2019-04-27T01:44:19.428Z,24.40
2019-04-27T01:45:18.756Z,22.90
2019-04-27T01:46:19.569Z,24.20
2019-04-27T01:47:18.784Z,22.30
2019-04-27T01:48:23.612Z,22.50
2019-04-27T01:49:19.391Z,22.80
2019-04-27T01:50:18.922Z,22.70
2019-04-27T01:51:20.805Z,22.80
2019-04-27T01:52:19.382Z,23.80
2019-04-27T01:53:19.048Z,22.20
2019-04-27T01:54:19.363Z,21.60
2019-04-27T01:55:18.904Z,23.10
2019-04-27T01:56:19.481Z,22.60
2019-04-27T01:57:19.414Z,22.50
2019-04-27T01:58:20.221Z,22.00
2019-04-27T01:59:19.945Z,21.60
2019-04-27T02:00:19.332Z,21.70
2019-04-27T02:01:18.764Z,21.60
2019-04-27T02:02:19.096Z,22.20
2019-04-27T02:03:19.790Z,22.70
2019-04-27T02:04:19.429Z,21.50
2019-04-27T02:05:19.028Z,22.70
2019-04-27T02:06:19.049Z,22.30
2019-04-27T02:07:19.169Z,22.10
2019-04-27T02:08:19.607Z,21.60
2019-04-27T02:09:18.772Z,22.10
2019-04-27T02:10:19.256Z,20.70
2019-04-27T02:11:18.618Z,21.50
2019-04-27T02:12:19.177Z,20.70
2019-04-27T02:13:18.869Z,21.00
2019-04-27T02:14:19.582Z,20.40
2019-04-27T02:15:19.179Z,21.50
2019-04-27T02:16:18.862Z,20.30
2019-04-27T02:17:18.809Z,20.10
2019-04-27T02:18:19.457Z,19.60
2019-04-27T02:19:19.338Z,20.10
2019-04-27T02:20:19.741Z,20.20
2019-04-27T02:21:19.287Z,20.10
2019-04-27T02:22:18.677Z,20.00
2019-04-27T02:23:19.243Z,19.60
2019-04-27T02:24:18.636Z,19.90
2019-04-27T02:25:18.957Z,19.10
2019-04-27T02:26:19.236Z,19.30
2019-04-27T02:27:18.696Z,18.60
2019-04-27T02:28:19.489Z,18.70
2019-04-27T02:29:18.882Z,18.00
2019-04-27T02:30:20.472Z,18.90
2019-04-27T02:31:19.325Z,19.00
2019-04-27T02:32:20.147Z,17.80
2019-04-27T02:33:20.220Z,18.10
2019-04-27T02:34:19.983Z,17.60
2019-04-27T02:35:19.312Z,17.50
2019-04-27T02:36:20.229Z,18.10
2019-04-27T02:37:20.011Z,18.10
2019-04-27T02:38:20.108Z,17.40
2019-04-27T02:39:19.758Z,17.70
2019-04-27T02:40:20.234Z,16.80
2019-04-27T02:41:19.857Z,17.30
2019-04-27T02:42:20.030Z,17.90
2019-04-27T02:43:19.421Z,17.80
2019-04-27T02:44:19.993Z,17.90
2019-04-27T02:45:19.585Z,18.00
2019-04-27T02:46:20.031Z,17.70
2019-04-27T02:47:20.486Z,17.40
2019-04-27T02:48:19.946Z,18.30
2019-04-27T02:49:20.025Z,18.50
2019-04-27T02:50:19.316Z,18.00
2019-04-27T02:51:20.193Z,18.30
2019-04-27T02:52:19.865Z,18.20
2019-04-27T02:53:19.640Z,18.70
2019-04-27T02:54:20.233Z,18.70
2019-04-27T02:55:19.799Z,18.70
2019-04-27T02:56:20.007Z,19.10
2019-04-27T02:57:19.860Z,19.10
2019-04-27T02:58:21.242Z,19.30
2019-04-27T02:59:19.857Z,19.00
2019-04-27T03:00:17.756Z,19.20
2019-04-27T03:01:19.867Z,19.00
2019-04-27T03:02:19.659Z,19.40
2019-04-27T03:03:20.105Z,19.50
2019-04-27T03:05:39.841Z,18.00
2019-04-27T03:06:39.924Z,19.50
2019-04-27T03:07:39.906Z,18.90
2019-04-27T03:08:39.425Z,19.60
2019-04-27T03:09:39.532Z,19.40
2019-04-27T03:10:40.133Z,19.10
2019-04-27T03:11:39.566Z,19.50
2019-04-27T03:12:39.893Z,19.40
2019-04-27T03:13:40.489Z,19.20
2019-04-27T03:14:40.453Z,19.70
2019-04-27T03:15:40.360Z,19.90
2019-04-27T03:16:39.461Z,19.50
2019-04-27T03:17:39.613Z,18.70
2019-04-27T03:18:40.345Z,18.80
2019-04-27T03:19:39.782Z,19.50
2019-04-27T03:20:40.254Z,18.70
2019-04-27T03:21:39.594Z,18.80
2019-04-27T03:22:39.853Z,19.60
2019-04-27T03:23:41.028Z,19.60
2019-04-27T03:24:39.448Z,19.90
2019-04-27T03:25:40.142Z,18.90
2019-04-27T03:26:38.985Z,20.40
2019-04-27T03:27:40.553Z,19.80
2019-04-27T03:28:40.131Z,19.70
2019-04-27T03:29:38.959Z,19.70
2019-04-27T03:30:42.482Z,20.30
2019-04-27T03:31:42.571Z,20.60
2019-04-27T03:32:42.541Z,19.90
2019-04-27T03:33:42.630Z,20.00
2019-04-27T03:34:41.792Z,19.20
2019-04-27T03:35:42.691Z,19.50
2019-04-27T03:36:39.563Z,18.50
2019-04-27T03:37:40.382Z,19.30
2019-04-27T03:38:39.728Z,18.20
2019-04-27T03:39:39.751Z,19.70
2019-04-27T03:40:40.288Z,18.20
2019-04-27T03:41:40.986Z,19.20
2019-04-27T03:42:40.298Z,18.70
2019-04-27T03:43:40.192Z,19.00
2019-04-27T03:44:39.808Z,18.10
2019-04-27T03:45:39.965Z,17.70
2019-04-27T03:46:39.729Z,18.50
2019-04-27T03:47:40.699Z,17.90
2019-04-27T03:48:40.715Z,17.70
2019-04-27T03:49:41.524Z,18.30
2019-04-27T03:50:39.854Z,17.80
2019-04-27T03:51:40.190Z,17.60
2019-04-27T03:52:39.710Z,17.30
2019-04-27T03:53:39.628Z,17.30
2019-04-27T03:54:40.095Z,17.70
2019-04-27T03:55:39.766Z,17.70
2019-04-27T03:56:39.573Z,16.50
2019-04-27T03:57:40.271Z,17.30
2019-04-27T03:58:39.578Z,17.30
2019-04-27T03:59:40.522Z,16.50
2019-04-27T04:00:39.835Z,16.50
2019-04-27T04:01:39.607Z,16.90
2019-04-27T04:02:40.549Z,16.50
2019-04-27T04:03:39.313Z,16.30
2019-04-27T04:04:40.567Z,16.60
2019-04-27T04:05:39.801Z,15.60
2019-04-27T04:06:39.911Z,16.60
2019-04-27T04:07:40.246Z,16.40
2019-04-27T04:08:39.680Z,15.50
2019-04-27T04:09:40.175Z,15.70
2019-04-27T04:10:39.243Z,14.80
2019-04-27T04:11:39.559Z,15.60
2019-04-27T04:12:40.020Z,14.60
2019-04-27T04:13:39.633Z,14.60
2019-04-27T04:14:42.425Z,14.40
2019-04-27T04:15:39.835Z,14.70
2019-04-27T04:16:39.492Z,13.60
2019-04-27T04:17:40.327Z,13.40
2019-04-27T04:18:39.657Z,14.50
2019-04-27T04:19:51.181Z,14.50
2019-04-27T04:20:40.369Z,14.50
2019-04-27T04:21:40.005Z,14.00
2019-04-27T04:22:40.126Z,13.40
2019-04-27T04:23:40.145Z,13.30
2019-04-27T04:24:39.724Z,13.10
2019-04-27T04:25:40.672Z,13.00
2019-04-27T04:26:40.214Z,13.20
2019-04-27T04:27:40.126Z,12.90
2019-04-27T04:28:39.638Z,13.10
2019-04-27T04:29:39.450Z,12.30
2019-04-27T04:30:40.267Z,12.60
2019-04-27T04:31:40.547Z,11.60
2019-04-27T04:32:39.480Z,12.00
2019-04-27T04:33:40.152Z,11.40
2019-04-27T04:34:39.885Z,10.90
2019-04-27T04:35:39.766Z,12.00
2019-04-27T04:36:39.401Z,11.80
2019-04-27T04:37:39.419Z,11.30
2019-04-27T04:38:40.099Z,11.00
2019-04-27T04:39:40.296Z,10.90
2019-04-27T04:40:39.970Z,11.50
2019-04-27T04:41:43.181Z,11.30
2019-04-27T04:42:39.222Z,10.70
2019-04-27T04:43:39.715Z,11.30
2019-04-27T04:44:39.954Z,10.60
2019-04-27T04:45:39.342Z,10.80
2019-04-27T04:46:39.906Z,11.00
2019-04-27T04:47:40.509Z,10.60
2019-04-27T04:48:40.229Z,10.90
2019-04-27T04:49:39.761Z,10.90
2019-04-27T04:50:39.774Z,10.70
2019-04-27T04:51:40.006Z,10.50
2019-04-27T04:52:39.673Z,9.90
2019-04-27T04:53:37.683Z,9.60
2019-04-27T04:54:37.657Z,9.60
2019-04-27T04:55:39.185Z,9.30
2019-04-27T04:56:39.289Z,8.70
2019-04-27T04:57:39.822Z,8.60
2019-04-27T04:58:39.244Z,8.70
2019-04-27T04:59:39.020Z,8.80
2019-04-27T05:00:39.882Z,8.50
2019-04-27T05:01:39.899Z,8.50
2019-04-27T05:02:39.526Z,7.50
2019-04-27T05:03:38.865Z,7.50
2019-04-27T05:04:39.060Z,8.00
2019-04-27T05:06:46.738Z,6.50
2019-04-27T05:07:48.623Z,6.70
2019-04-27T05:08:49.282Z,7.00
2019-04-27T05:09:48.564Z,6.60
2019-04-27T05:10:49.465Z,6.60
2019-04-27T05:11:48.664Z,5.70
2019-04-27T05:12:48.577Z,5.40
2019-04-27T05:13:49.306Z,5.30
2019-04-27T05:14:48.935Z,5.50
2019-04-27T05:15:48.701Z,5.20
2019-04-27T05:16:48.908Z,4.70
2019-04-27T05:17:48.385Z,4.70
2019-04-27T05:18:49.412Z,4.60
2019-04-27T05:19:49.112Z,5.10
2019-04-27T05:20:48.644Z,4.70
2019-04-27T05:21:49.138Z,4.80
2019-04-27T05:22:49.066Z,4.60
2019-04-27T05:23:48.687Z,4.70
2019-04-27T05:24:49.247Z,5.00
2019-04-27T05:25:49.074Z,4.50
2019-04-27T05:26:48.738Z,4.60
2019-04-27T05:27:49.268Z,4.60
2019-04-27T05:28:49.163Z,4.50
2019-04-27T05:29:48.851Z,4.40
2019-04-27T05:30:48.956Z,4.10
2019-04-27T05:31:49.005Z,4.10
2019-04-27T05:32:47.462Z,3.90
2019-04-27T05:33:49.065Z,3.90
2019-04-27T05:34:47.428Z,3.70
2019-04-27T05:35:49.130Z,3.70
2019-04-27T05:36:48.797Z,3.90
2019-04-27T05:37:49.082Z,4.00
2019-04-27T05:38:47.400Z,3.90
2019-04-27T05:39:48.706Z,3.60
2019-04-27T05:40:47.350Z,3.80
2019-04-27T05:41:47.425Z,3.80
2019-04-27T05:42:48.827Z,3.80
2019-04-27T05:43:49.032Z,3.70
2019-04-27T05:44:48.861Z,3.20
2019-04-27T05:45:48.821Z,3.40
2019-04-27T05:46:47.287Z,3.00
2019-04-27T05:47:50.794Z,3.30
2019-04-27T05:48:48.791Z,2.90
2019-04-27T05:49:48.553Z,2.90
2019-04-27T05:50:51.440Z,3.00
2019-04-27T05:51:48.481Z,3.00
2019-04-27T05:52:49.501Z,2.60
2019-04-27T05:53:47.210Z,2.70
2019-04-27T05:54:48.857Z,2.80
2019-04-27T05:55:47.188Z,2.60
2019-04-27T05:56:49.103Z,2.60
2019-04-27T05:57:48.874Z,3.10
2019-04-27T05:58:47.158Z,2.60
2019-04-27T05:59:47.164Z,2.50
2019-04-27T06:00:47.140Z,2.80
2019-04-27T06:01:48.999Z,2.50
2019-04-27T06:02:48.697Z,2.60
2019-04-27T06:03:47.100Z,2.90
2019-04-27T06:04:47.111Z,2.60
2019-04-27T06:05:48.848Z,2.70
2019-04-27T06:06:47.074Z,2.60
2019-04-27T06:07:48.791Z,2.90
2019-04-27T06:08:47.046Z,2.40
2019-04-27T06:09:47.047Z,2.40
2019-04-27T06:10:48.828Z,2.50
2019-04-27T06:11:48.695Z,2.30
2019-04-27T06:12:48.513Z,2.40
2019-04-27T06:13:46.997Z,2.60
2019-04-27T06:14:47.012Z,2.40
2019-04-27T06:15:46.971Z,2.40
2019-04-27T06:16:46.950Z,2.10
2019-04-27T06:17:48.451Z,2.70
2019-04-27T06:18:46.935Z,2.60
2019-04-27T06:19:46.959Z,2.60
2019-04-27T06:20:53.461Z,2.20
2019-04-27T06:21:46.907Z,2.30
2019-04-27T06:22:48.776Z,2.30
2019-04-27T06:23:48.713Z,2.30
2019-04-27T06:24:46.909Z,2.30
2019-04-27T06:25:46.873Z,2.30
2019-04-27T06:26:46.849Z,2.20
2019-04-27T06:27:46.831Z,2.10
2019-04-27T06:28:46.824Z,2.20
2019-04-27T06:29:46.845Z,2.10
2019-04-27T06:30:46.831Z,2.40
2019-04-27T06:31:46.800Z,2.20
2019-04-27T06:32:46.803Z,2.60
2019-04-27T06:33:46.780Z,2.60
2019-04-27T06:34:48.819Z,2.40
2019-04-27T06:35:46.768Z,2.60
2019-04-27T06:36:48.585Z,2.50
2019-04-27T06:37:46.737Z,2.40
2019-04-27T06:38:48.485Z,2.20
2019-04-27T06:39:46.724Z,2.20
2019-04-27T06:40:46.705Z,2.30
2019-04-27T06:41:46.680Z,2.40
2019-04-27T06:42:48.505Z,2.40
2019-04-27T06:43:46.666Z,2.10
2019-04-27T06:44:46.669Z,2.30
2019-04-27T06:45:46.658Z,2.00
2019-04-27T06:46:46.633Z,2.20
2019-04-27T06:47:46.618Z,2.70
2019-04-27T06:48:47.480Z,2.30
2019-04-27T06:49:46.606Z,2.40
2019-04-27T06:50:46.599Z,2.30
2019-04-27T06:51:46.580Z,2.50
2019-04-27T06:52:46.570Z,2.50
2019-04-27T06:53:46.564Z,2.30
2019-04-27T06:54:46.554Z,2.20
2019-04-27T06:55:46.560Z,2.40
2019-04-27T06:56:46.525Z,2.30
2019-04-27T06:57:46.514Z,2.60
2019-04-27T06:58:46.498Z,2.20
2019-04-27T06:59:46.487Z,2.50
2019-04-27T07:00:46.494Z,2.50
2019-04-27T07:01:46.469Z,2.50
2019-04-27T07:02:46.451Z,2.10
2019-04-27T07:03:46.462Z,2.20
2019-04-27T07:04:46.436Z,2.40
2019-04-27T07:05:46.447Z,2.50
2019-04-27T07:07:58.936Z,1.70
2019-04-27T07:08:59.611Z,2.10
2019-04-27T07:09:59.068Z,2.30
2019-04-27T07:10:58.888Z,2.40
2019-04-27T07:11:59.244Z,2.40
2019-04-27T07:12:59.668Z,2.40
2019-04-27T07:13:59.397Z,2.40
2019-04-27T07:14:59.278Z,2.20
2019-04-27T07:15:59.534Z,2.60
2019-04-27T07:16:59.082Z,2.30
2019-04-27T07:17:58.640Z,2.40
2019-04-27T07:18:59.344Z,2.20
2019-04-27T07:19:59.447Z,2.90
2019-04-27T07:20:58.684Z,2.50
2019-04-27T07:21:59.409Z,2.70
2019-04-27T07:22:59.503Z,2.90
2019-04-27T07:23:59.347Z,2.40
2019-04-27T07:24:59.072Z,2.60
2019-04-27T07:25:59.749Z,2.80
2019-04-27T07:26:59.585Z,2.60
2019-04-27T07:27:59.216Z,2.80
2019-04-27T07:28:59.518Z,2.50
2019-04-27T07:30:00.770Z,2.90
2019-04-27T07:30:58.674Z,2.50
2019-04-27T07:31:59.506Z,2.70
2019-04-27T07:33:00.130Z,2.70
2019-04-27T07:33:59.409Z,2.60
2019-04-27T07:34:58.621Z,2.70
2019-04-27T07:35:59.091Z,2.80
2019-04-27T07:36:59.571Z,2.80
2019-04-27T07:37:58.810Z,2.90
2019-04-27T07:38:59.625Z,2.80
2019-04-27T07:39:59.125Z,2.80
2019-04-27T07:40:58.689Z,3.00
2019-04-27T07:41:58.571Z,2.90
2019-04-27T07:42:59.294Z,2.80
2019-04-27T07:43:58.618Z,2.60
2019-04-27T07:44:59.419Z,3.00
2019-04-27T07:45:59.076Z,3.30
2019-04-27T07:46:59.438Z,3.10
2019-04-27T07:47:59.154Z,3.10
2019-04-27T07:48:59.425Z,3.20
2019-04-27T07:49:59.271Z,3.40
2019-04-27T07:50:59.072Z,4.00
2019-04-27T07:51:58.971Z,3.50
2019-04-27T07:52:58.655Z,3.70
2019-04-27T07:53:58.899Z,4.00
2019-04-27T07:54:58.758Z,3.70
2019-04-27T07:55:59.146Z,4.00
2019-04-27T07:56:58.774Z,3.80
2019-04-27T07:57:59.382Z,3.90
2019-04-27T07:58:59.404Z,3.50
2019-04-27T07:59:59.472Z,4.10
2019-04-27T08:00:59.026Z,4.20
2019-04-27T08:01:59.111Z,3.50
2019-04-27T08:02:58.614Z,3.90
2019-04-27T08:03:59.027Z,3.60
2019-04-27T08:04:57.424Z,3.40
2019-04-27T08:05:58.818Z,3.60
2019-04-27T08:06:57.421Z,3.40
2019-04-27T08:07:57.399Z,3.50
2019-04-27T08:08:59.189Z,3.20
2019-04-27T08:10:01.105Z,3.50
2019-04-27T08:10:57.356Z,3.60
2019-04-27T08:11:58.672Z,3.40
2019-04-27T08:12:57.354Z,3.60
2019-04-27T08:13:58.824Z,3.30
2019-04-27T08:14:57.323Z,3.80
2019-04-27T08:15:58.967Z,3.30
2019-04-27T08:16:58.649Z,3.70
2019-04-27T08:17:59.042Z,3.50
2019-04-27T08:18:57.270Z,3.90
2019-04-27T08:19:57.275Z,3.60
2019-04-27T08:20:58.944Z,3.80
2019-04-27T08:21:57.238Z,3.70
2019-04-27T08:22:57.235Z,3.70
2019-04-27T08:23:58.626Z,3.70
2019-04-27T08:24:57.196Z,3.80
2019-04-27T08:25:58.787Z,4.40
2019-04-27T08:26:57.184Z,3.70
2019-04-27T08:27:57.201Z,4.00
2019-04-27T08:28:58.627Z,3.70
2019-04-27T08:29:58.739Z,3.50
2019-04-27T08:30:58.563Z,3.70
2019-04-27T08:31:58.518Z,4.20
2019-04-27T08:32:57.128Z,4.30
2019-04-27T08:33:58.309Z,4.10
2019-04-27T08:34:59.489Z,4.00
2019-04-27T08:35:58.947Z,3.70
2019-04-27T08:36:58.460Z,3.80
2019-04-27T08:37:57.071Z,3.80
2019-04-27T08:38:58.746Z,4.00
2019-04-27T08:39:57.046Z,4.00
2019-04-27T08:40:57.027Z,4.20
2019-04-27T08:41:57.021Z,3.80
2019-04-27T08:42:57.027Z,4.10
2019-04-27T08:43:58.663Z,4.00
2019-04-27T08:44:56.982Z,3.80
2019-04-27T08:45:58.795Z,4.00
2019-04-27T08:46:56.973Z,4.10
2019-04-27T08:47:56.956Z,4.20
2019-04-27T08:48:58.576Z,4.60
2019-04-27T08:49:56.930Z,4.20
2019-04-27T08:50:56.912Z,4.30
2019-04-27T08:52:01.207Z,4.10
2019-04-27T08:52:56.916Z,4.80
2019-04-27T08:53:56.893Z,4.80
2019-04-27T08:54:56.869Z,4.50
2019-04-27T08:55:56.854Z,5.40
2019-04-27T08:56:56.849Z,5.00
2019-04-27T08:57:58.567Z,5.10
2019-04-27T08:58:56.847Z,5.30
2019-04-27T08:59:56.823Z,4.60
2019-04-27T09:00:56.816Z,4.70
2019-04-27T09:01:58.647Z,4.30
2019-04-27T09:02:56.781Z,4.70
2019-04-27T09:03:56.803Z,4.10
2019-04-27T09:04:56.768Z,4.30
2019-04-27T09:05:56.751Z,4.20
2019-04-27T09:06:56.765Z,4.20
2019-04-27T09:09:05.955Z,3.80
2019-04-27T09:10:08.575Z,4.10
2019-04-27T09:11:08.789Z,4.40
2019-04-27T09:12:06.911Z,4.30
2019-04-27T09:13:08.739Z,4.00
2019-04-27T09:14:06.903Z,4.40
2019-04-27T09:15:06.878Z,4.60
2019-04-27T09:16:06.863Z,4.40
2019-04-27T09:17:06.853Z,4.60
2019-04-27T09:18:06.840Z,4.10
2019-04-27T09:19:08.703Z,4.30
2019-04-27T09:20:06.834Z,4.40
2019-04-27T09:21:06.813Z,4.30
2019-04-27T09:22:15.245Z,4.00
2019-04-27T09:23:06.790Z,4.10
2019-04-27T09:24:06.764Z,4.30
2019-04-27T09:25:06.783Z,4.00
2019-04-27T09:26:06.751Z,4.60
2019-04-27T09:27:06.731Z,3.60
2019-04-27T09:28:08.642Z,4.10
2019-04-27T09:29:08.315Z,4.30
2019-04-27T09:30:08.410Z,3.80
2019-04-27T09:31:09.243Z,3.90
2019-04-27T09:32:08.754Z,3.90
2019-04-27T09:33:06.678Z,3.80
2019-04-27T09:34:08.108Z,3.80
2019-04-27T09:35:07.706Z,3.70
2019-04-27T09:36:06.638Z,3.90
2019-04-27T09:37:06.631Z,3.20
2019-04-27T09:38:07.141Z,3.50
2019-04-27T09:39:08.565Z,3.60
2019-04-27T09:40:08.153Z,3.40
2019-04-27T09:41:07.151Z,3.70
2019-04-27T09:42:06.696Z,3.50
2019-04-27T09:43:07.542Z,3.70
2019-04-27T09:44:06.554Z,3.20
2019-04-27T09:45:06.689Z,3.40
2019-04-27T09:46:06.540Z,3.40
2019-04-27T09:47:06.521Z,3.10
2019-04-27T09:48:06.758Z,3.60
2019-04-27T09:49:07.432Z,3.40
2019-04-27T09:50:06.496Z,3.70
2019-04-27T09:51:06.583Z,3.70
2019-04-27T09:52:06.463Z,3.80
2019-04-27T09:53:06.524Z,3.70
2019-04-27T09:54:06.446Z,3.50
2019-04-27T09:55:06.672Z,4.00
2019-04-27T09:56:06.418Z,4.00
2019-04-27T09:57:07.015Z,3.90
2019-04-27T09:58:06.383Z,4.00
2019-04-27T09:59:06.465Z,4.10
2019-04-27T10:00:06.465Z,4.20
2019-04-27T10:01:06.714Z,4.30
2019-04-27T10:02:08.436Z,4.10
2019-04-27T10:03:06.730Z,4.60
2019-04-27T10:04:06.330Z,4.40
2019-04-27T10:05:06.343Z,4.50
2019-04-27T10:06:06.307Z,4.20
2019-04-27T10:07:06.327Z,4.30
2019-04-27T10:08:06.403Z,4.60
2019-04-27T10:09:06.655Z,4.90
2019-04-27T10:10:06.538Z,4.70
2019-04-27T10:11:06.283Z,5.00
2019-04-27T10:12:07.503Z,4.70
2019-04-27T10:13:07.039Z,5.00
2019-04-27T10:14:06.210Z,4.90
2019-04-27T10:15:06.234Z,4.30
2019-04-27T10:16:06.202Z,4.30
2019-04-27T10:17:06.184Z,4.40
2019-04-27T10:18:06.252Z,4.40
2019-04-27T10:19:06.156Z,4.50
2019-04-27T10:20:06.159Z,4.50
2019-04-27T10:21:06.397Z,4.60
2019-04-27T10:22:06.186Z,5.20
2019-04-27T10:23:06.385Z,5.20
2019-04-27T10:24:06.622Z,4.90
2019-04-27T10:25:06.085Z,5.00
2019-04-27T10:26:06.102Z,4.80
2019-04-27T10:27:07.984Z,5.40
2019-04-27T10:28:06.752Z,5.10
2019-04-27T10:29:06.236Z,5.00
2019-04-27T10:30:06.040Z,4.70
2019-04-27T10:31:07.037Z,4.00
2019-04-27T10:32:06.411Z,4.40
2019-04-27T10:33:08.122Z,4.20
2019-04-27T10:34:06.100Z,3.90
2019-04-27T10:35:07.674Z,3.80
2019-04-27T10:36:06.596Z,4.10
2019-04-27T10:37:06.190Z,4.10
2019-04-27T10:38:05.936Z,4.30
2019-04-27T10:39:05.932Z,4.10
2019-04-27T10:40:06.269Z,3.90
2019-04-27T10:41:07.640Z,4.10
2019-04-27T10:42:06.800Z,4.40
2019-04-27T10:43:06.377Z,4.60
2019-04-27T10:44:07.529Z,4.60
2019-04-27T10:45:06.432Z,4.60
2019-04-27T10:46:06.654Z,4.70
2019-04-27T10:47:06.111Z,4.80
2019-04-27T10:48:05.837Z,4.80
2019-04-27T10:49:05.963Z,4.50
2019-04-27T10:50:05.937Z,4.90
2019-04-27T10:51:07.382Z,4.90
2019-04-27T10:52:06.021Z,4.60
2019-04-27T10:53:06.910Z,5.30
2019-04-27T10:54:05.771Z,4.80
2019-04-27T10:55:06.067Z,4.90
2019-04-27T10:56:05.747Z,4.60
2019-04-27T10:57:06.193Z,4.60
2019-04-27T10:58:05.714Z,4.70
2019-04-27T10:59:06.515Z,5.00
2019-04-27T11:00:06.832Z,4.60
2019-04-27T11:01:05.708Z,4.60
2019-04-27T11:02:05.690Z,4.20
2019-04-27T11:03:06.636Z,4.60
2019-04-27T11:04:05.938Z,4.80
2019-04-27T11:05:06.792Z,4.70
2019-04-27T11:06:05.971Z,4.70
2019-04-27T11:07:07.177Z,4.70
2019-04-27T11:08:06.632Z,4.70
2019-04-27T11:10:26.086Z,3.40
2019-04-27T11:11:27.788Z,3.90
2019-04-27T11:12:26.721Z,3.70
2019-04-27T11:13:26.699Z,3.80
2019-04-27T11:14:26.679Z,4.40
2019-04-27T11:15:26.695Z,3.70
2019-04-27T11:16:26.687Z,4.10
2019-04-27T11:17:26.817Z,4.20
2019-04-27T11:18:26.636Z,3.90
2019-04-27T11:19:26.853Z,4.00
2019-04-27T11:20:27.794Z,3.80
2019-04-27T11:21:26.615Z,4.10
2019-04-27T11:22:26.612Z,3.70
2019-04-27T11:23:26.586Z,4.20
2019-04-27T11:24:26.572Z,3.80
2019-04-27T11:25:26.568Z,4.20
2019-04-27T11:26:26.567Z,4.20
2019-04-27T11:27:26.563Z,3.70
2019-04-27T11:28:26.531Z,3.70
2019-04-27T11:29:27.672Z,3.30
2019-04-27T11:30:26.504Z,3.60
2019-04-27T11:31:26.493Z,3.60
2019-04-27T11:32:26.512Z,4.20
2019-04-27T11:33:26.492Z,3.30
2019-04-27T11:34:26.520Z,3.40
2019-04-27T11:35:26.465Z,3.00
2019-04-27T11:36:26.451Z,3.30
2019-04-27T11:37:26.437Z,3.00
2019-04-27T11:38:26.685Z,3.10
2019-04-27T11:39:26.403Z,3.00
2019-04-27T11:40:26.407Z,2.80
2019-04-27T11:41:26.431Z,3.00
2019-04-27T11:42:26.386Z,3.10
2019-04-27T11:43:26.365Z,3.00
2019-04-27T11:44:26.347Z,3.30
2019-04-27T11:45:28.381Z,3.30
2019-04-27T11:46:26.756Z,3.50
2019-04-27T11:47:27.465Z,3.60
2019-04-27T11:48:26.377Z,3.20
2019-04-27T11:49:26.304Z,3.50
2019-04-27T11:50:26.285Z,3.20
2019-04-27T11:51:26.686Z,3.50
2019-04-27T11:52:26.269Z,3.60
2019-04-27T11:53:26.382Z,3.60
2019-04-27T11:54:27.580Z,3.40
2019-04-27T11:55:27.374Z,3.90
2019-04-27T11:56:27.442Z,3.50
2019-04-27T11:57:26.209Z,3.80
2019-04-27T11:58:26.579Z,3.40
2019-04-27T11:59:27.119Z,3.80
2019-04-27T12:00:27.674Z,3.60
2019-04-27T12:01:27.057Z,3.90
2019-04-27T12:02:26.147Z,3.70
2019-04-27T12:03:26.160Z,3.80
2019-04-27T12:04:26.393Z,3.40
2019-04-27T12:05:26.198Z,3.50
2019-04-27T12:06:26.112Z,3.80
2019-04-27T12:07:26.090Z,3.40
2019-04-27T12:08:26.500Z,3.90
2019-04-27T12:09:26.090Z,3.40
2019-04-27T12:10:26.383Z,3.60
2019-04-27T12:11:26.182Z,3.70
2019-04-27T12:12:26.253Z,3.40
2019-04-27T12:13:26.048Z,3.60
2019-04-27T12:14:26.019Z,3.60
2019-04-27T12:15:26.394Z,3.30
2019-04-27T12:16:26.294Z,3.70
2019-04-27T12:17:29.039Z,4.00
2019-04-27T12:18:25.999Z,3.70
2019-04-27T12:19:26.806Z,3.50
2019-04-27T12:20:26.072Z,3.50
2019-04-27T12:21:25.942Z,3.30
2019-04-27T12:22:25.928Z,3.80
2019-04-27T12:23:33.692Z,3.60
2019-04-27T12:24:26.727Z,3.70
2019-04-27T12:25:25.889Z,3.20
2019-04-27T12:26:25.989Z,3.20
2019-04-27T12:27:25.872Z,3.30
2019-04-27T12:28:27.209Z,3.20
2019-04-27T12:29:25.856Z,3.60
2019-04-27T12:30:26.197Z,3.30
2019-04-27T12:31:25.873Z,3.70
2019-04-27T12:32:25.818Z,3.80
2019-04-27T12:33:27.627Z,3.40
2019-04-27T12:34:27.883Z,4.00
2019-04-27T12:35:25.839Z,4.10
2019-04-27T12:36:25.912Z,4.20
2019-04-27T12:37:26.788Z,4.30
2019-04-27T12:38:26.337Z,3.70
2019-04-27T12:39:26.789Z,4.40
2019-04-27T12:40:26.857Z,2.90
2019-04-27T12:41:25.716Z,2.70
2019-04-27T12:42:26.015Z,2.90
2019-04-27T12:43:25.694Z,2.50
2019-04-27T12:44:26.154Z,2.80
2019-04-27T12:45:26.652Z,2.00
2019-04-27T12:46:25.672Z,2.60
2019-04-27T12:47:26.300Z,3.30
2019-04-27T12:48:25.645Z,3.40
2019-04-27T12:49:26.154Z,3.70
2019-04-27T12:50:26.134Z,3.50
2019-04-27T12:51:25.601Z,3.60
2019-04-27T12:52:25.966Z,4.30
2019-04-27T12:53:25.578Z,3.60
2019-04-27T12:54:26.186Z,4.00
2019-04-27T12:55:25.767Z,3.80
2019-04-27T12:56:25.546Z,3.70
2019-04-27T12:57:26.327Z,3.60
2019-04-27T12:58:26.541Z,3.80
2019-04-27T12:59:26.168Z,4.00
2019-04-27T13:00:26.672Z,3.80
2019-04-27T13:01:25.870Z,4.00
2019-04-27T13:02:25.487Z,4.10
2019-04-27T13:03:26.188Z,4.00
2019-04-27T13:04:25.475Z,4.20
2019-04-27T13:05:25.874Z,3.60
2019-04-27T13:06:25.431Z,4.00
2019-04-27T13:07:26.085Z,3.90
2019-04-27T13:08:26.013Z,4.60
2019-04-27T13:09:25.709Z,4.40
2019-04-27T13:11:34.591Z,4.50
2019-04-27T13:12:35.840Z,4.60
2019-04-27T13:13:36.810Z,4.60
2019-04-27T13:14:36.526Z,5.10
2019-04-27T13:15:35.696Z,5.20
2019-04-27T13:16:35.546Z,4.80